Time;durP1;ratioP1;P1;durP2;ratioP2;P2;SDS_P1;SDS_P2;PMS_P1;PMS_P2;Temp;Humidity;BMP_temperature;BMP_pressure;BME280_temperature;BME280_humidity;BME280_pressure;Samples;Min_cycle;Max_cycle;Signal;HPM_P1;HPM_P2
2022/07/12 00:02:25;;;;;;;;;;;;;;;13.48;100.00;101933.66;5006722;28;19921;-75
2022/07/12 00:04:51;;;;;;;;;;;;;;;13.41;100.00;101937.97;5015009;28;20329;-75
2022/07/12 00:07:16;;;;;;;;;;;;;;;13.35;100.00;101927.03;5015773;28;19916;-76
2022/07/12 00:09:42;;;;;;;;;;;;;;;13.31;100.00;101931.81;5020119;28;19917;-74
2022/07/12 00:12:07;;;;;;;;;;;;;;;13.30;100.00;101935.50;4989665;28;19914;-75
2022/07/12 00:14:33;;;;;;;;;;;;;;;13.22;100.00;101932.69;4997614;28;19975;-73
2022/07/12 00:16:58;;;;;;;;;;;;;;;13.19;100.00;101938.38;5005726;28;19913;-73
2022/07/12 00:19:23;;;;;;;;;;;;;;;13.10;100.00;101934.75;5017345;28;19921;-74
2022/07/12 00:21:48;;;;;;;;;;;;;;;13.06;100.00;101942.25;5011300;28;19913;-75
2022/07/12 00:24:14;;;;;;;;;;;;;;;13.10;100.00;101937.44;5014927;28;19920;-73
2022/07/12 00:26:39;;;;;;;;;;;;;;;13.00;100.00;101942.84;5017045;28;19988;-76
2022/07/12 00:29:06;;;;;;;;;;;;;;;13.04;100.00;101928.16;5008756;28;19917;-76
2022/07/12 00:31:31;;;;;;;;;;;;;;;12.91;100.00;101922.28;5014313;28;20290;-76
2022/07/12 00:33:56;;;;;;;;;;;;;;;12.83;100.00;101919.50;5014059;28;19913;-74
2022/07/12 00:36:22;;;;;;;;;;;;;;;12.82;100.00;101915.97;5005556;28;19916;-76
2022/07/12 00:38:47;;;;;;;;;;;;;;;12.85;100.00;101923.75;4989130;28;20610;-75
2022/07/12 00:41:12;;;;;;;;;;;;;;;12.74;100.00;101910.53;5021428;28;19921;-72
2022/07/12 00:43:38;;;;;;;;;;;;;;;12.75;100.00;101908.69;5011230;28;19917;-73
2022/07/12 00:46:03;;;;;;;;;;;;;;;12.75;100.00;101909.53;5009016;28;20445;-73
2022/07/12 00:48:30;;;;;;;;;;;;;;;12.73;100.00;101913.34;5006953;28;19913;-74
2022/07/12 00:50:55;;;;;;;;;;;;;;;12.67;100.00;101902.25;5006474;28;19997;-76
2022/07/12 00:53:24;;;;;;;;;;;;;;;12.61;100.00;101902.81;5006731;28;20003;-73
2022/07/12 00:55:56;;;;;;;;;;;;;;;12.59;100.00;101893.25;5013647;28;19996;-75
2022/07/12 00:58:22;;;;;;;;;;;;;;;12.49;100.00;101890.63;5021747;28;20025;-76
2022/07/12 01:00:48;;;;;;;;;;;;;;;12.41;100.00;101888.69;5005295;28;20063;-74
2022/07/12 01:03:13;;;;;;;;;;;;;;;12.40;100.00;101894.19;5021165;28;20378;-75
2022/07/12 01:05:39;;;;;;;;;;;;;;;12.38;100.00;101885.44;5006838;28;20386;-74
2022/07/12 01:08:05;;;;;;;;;;;;;;;12.38;100.00;101885.44;5004275;28;19971;-74
2022/07/12 01:10:31;;;;;;;;;;;;;;;12.33;100.00;101885.03;5021999;28;19910;-74
2022/07/12 01:12:58;;;;;;;;;;;;;;;12.31;100.00;101889.69;5006669;28;19913;-74
2022/07/12 01:15:23;;;;;;;;;;;;;;;12.32;100.00;101883.38;5005962;28;19990;-74
2022/07/12 01:17:48;;;;;;;;;;;;;;;12.33;100.00;101887.72;5016357;28;19936;-75
2022/07/12 01:20:14;;;;;;;;;;;;;;;12.29;100.00;101891.66;5007110;28;19916;-74
2022/07/12 01:22:41;;;;;;;;;;;;;;;12.19;100.00;101881.81;5017772;28;20386;-74
2022/07/12 01:25:07;;;;;;;;;;;;;;;12.10;100.00;101879.19;5009381;28;20386;-74
2022/07/12 01:27:32;;;;;;;;;;;;;;;12.21;100.00;101895.91;5013511;28;19945;-74
2022/07/12 01:29:58;;;;;;;;;;;;;;;12.18;100.00;101901.56;5005005;28;20007;-75
2022/07/12 01:32:26;;;;;;;;;;;;;;;12.25;100.00;101900.00;5012938;28;20264;-74
2022/07/12 01:34:57;;;;;;;;;;;;;;;12.25;100.00;101901.84;5013240;28;19910;-74
2022/07/12 01:37:23;;;;;;;;;;;;;;;12.19;100.00;101897.91;5008606;28;20601;-74
2022/07/12 01:39:55;;;;;;;;;;;;;;;12.16;100.00;101898.19;5019652;28;19914;-74
2022/07/12 01:42:21;;;;;;;;;;;;;;;12.12;100.00;101896.78;5005930;28;19975;-74
2022/07/12 01:44:48;;;;;;;;;;;;;;;12.04;100.00;101894.84;5006494;28;19913;-74
2022/07/12 01:47:13;;;;;;;;;;;;;;;11.99;100.00;101894.44;5005276;28;19921;-73
2022/07/12 01:49:38;;;;;;;;;;;;;;;11.98;100.00;101900.75;5004934;28;20326;-74
2022/07/12 01:52:04;;;;;;;;;;;;;;;11.97;100.00;101906.28;5012861;28;19992;-75
2022/07/12 01:54:29;;;;;;;;;;;;;;;11.97;100.00;101898.25;5006464;28;20326;-78
2022/07/12 01:56:54;;;;;;;;;;;;;;;11.93;100.00;101902.19;5005785;28;20290;-74
2022/07/12 01:59:20;;;;;;;;;;;;;;;11.96;100.00;101897.41;5013107;28;19921;-75
2022/07/12 02:01:46;;;;;;;;;;;;;;;11.95;100.00;101898.38;5007421;28;19922;-75
2022/07/12 02:04:11;;;;;;;;;;;;;;;11.91;100.00;101899.63;5022279;28;20362;-75
2022/07/12 02:06:38;;;;;;;;;;;;;;;11.88;100.00;101899.94;5019675;28;19920;-73
2022/07/12 02:09:03;;;;;;;;;;;;;;;11.84;100.00;101901.16;5004696;28;19916;-75
2022/07/12 02:11:29;;;;;;;;;;;;;;;11.84;100.00;101899.34;5013098;28;19913;-74
2022/07/12 02:13:54;;;;;;;;;;;;;;;11.87;100.00;101905.38;4989374;28;19917;-75
2022/07/12 02:16:19;;;;;;;;;;;;;;;11.84;100.00;101899.34;5010075;28;19921;-75
2022/07/12 02:18:45;;;;;;;;;;;;;;;11.92;100.00;101909.38;5014245;28;19937;-74
2022/07/12 02:21:10;;;;;;;;;;;;;;;11.96;100.00;101901.88;5016058;28;19932;-75
2022/07/12 02:23:35;;;;;;;;;;;;;;;11.95;100.00;101908.25;5008208;28;19916;-75
2022/07/12 02:26:01;;;;;;;;;;;;;;;11.91;100.00;101910.34;5009072;28;19914;-73
2022/07/12 02:28:26;;;;;;;;;;;;;;;11.90;100.00;101914.03;5024225;28;19953;-75
2022/07/12 02:30:52;;;;;;;;;;;;;;;11.87;100.00;101925.03;5009008;28;19991;-75
2022/07/12 02:33:19;;;;;;;;;;;;;;;11.88;100.00;101932.06;5008189;28;19959;-75
2022/07/12 02:35:45;;;;;;;;;;;;;;;11.81;100.00;101929.06;5013191;28;19966;-75
2022/07/12 02:38:10;;;;;;;;;;;;;;;11.80;100.00;101923.88;5026027;28;19912;-75
2022/07/12 02:40:53;;;;;;;;;;;;;;;11.69;100.00;101913.31;5015476;28;19917;-74
2022/07/12 02:43:19;;;;;;;;;;;;;;;11.64;100.00;101928.94;5016969;28;19963;-75
2022/07/12 02:45:45;;;;;;;;;;;;;;;11.61;100.00;101930.03;5008980;28;19909;-76
2022/07/12 02:48:13;;;;;;;;;;;;;;;11.57;100.00;101929.50;4991849;28;19924;-75
2022/07/12 02:50:39;;;;;;;;;;;;;;;11.57;100.00;101923.31;5014383;28;19949;-74
2022/07/12 02:53:05;;;;;;;;;;;;;;;11.58;100.00;101933.00;5007700;28;19917;-76
2022/07/12 02:55:30;;;;;;;;;;;;;;;11.57;100.00;101934.84;5016289;28;19909;-74
2022/07/12 02:57:55;;;;;;;;;;;;;;;11.56;100.00;101933.13;5016816;28;20390;-75
2022/07/12 03:00:20;;;;;;;;;;;;;;;11.52;100.00;101941.56;5026169;28;19917;-75
2022/07/12 03:02:46;;;;;;;;;;;;;;;11.53;100.00;101944.13;5018679;28;19940;-75
2022/07/12 03:05:11;;;;;;;;;;;;;;;11.56;100.00;101948.34;5026362;28;19909;-74
2022/07/12 03:07:36;;;;;;;;;;;;;;;11.57;100.00;101950.06;5008356;28;19956;-75
2022/07/12 03:10:02;;;;;;;;;;;;;;;11.53;100.00;101952.16;5008467;28;20020;-76
2022/07/12 03:12:28;;;;;;;;;;;;;;;11.52;100.00;101954.94;5026470;28;20361;-72
2022/07/12 03:14:54;;;;;;;;;;;;;;;11.51;100.00;101959.47;5012249;28;19992;-74
2022/07/12 03:17:19;;;;;;;;;;;;;;;11.46;100.00;101964.38;5025478;28;20275;-75
2022/07/12 03:19:44;;;;;;;;;;;;;;;11.46;100.00;101963.53;5013114;28;19910;-75
2022/07/12 03:22:09;;;;;;;;;;;;;;;11.47;100.00;101970.56;5023449;28;20498;-75
2022/07/12 03:24:35;;;;;;;;;;;;;;;11.44;100.00;101978.88;5012257;28;19916;-74
2022/07/12 03:27:00;;;;;;;;;;;;;;;11.45;100.00;101972.53;5018871;28;20390;-76
2022/07/12 03:29:25;;;;;;;;;;;;;;;11.46;100.00;101975.09;5009553;28;19920;-75
2022/07/12 03:31:50;;;;;;;;;;;;;;;11.52;100.00;101974.53;5019713;28;19975;-75
2022/07/12 03:34:16;;;;;;;;;;;;;;;11.49;100.00;101965.94;5015981;28;19912;-75
2022/07/12 03:36:41;;;;;;;;;;;;;;;11.50;100.00;101967.63;4990482;28;20262;-75
2022/07/12 03:39:06;;;;;;;;;;;;;;;11.57;100.00;101982.16;5006790;28;19916;-75
2022/07/12 03:41:31;;;;;;;;;;;;;;;11.57;100.00;101988.34;5007774;28;20035;-75
2022/07/12 03:43:57;;;;;;;;;;;;;;;11.61;100.00;101995.09;5007162;28;19920;-74
2022/07/12 03:46:22;;;;;;;;;;;;;;;11.65;100.00;101990.31;5014533;28;19917;-74
2022/07/12 03:48:47;;;;;;;;;;;;;;;11.75;100.00;101996.53;5008250;28;20008;-75
2022/07/12 03:51:13;;;;;;;;;;;;;;;11.83;100.00;101993.16;5007608;28;19942;-74
2022/07/12 03:53:38;;;;;;;;;;;;;;;11.95;100.00;101996.56;5015076;28;19913;-74
2022/07/12 03:56:03;;;;;;;;;;;;;;;11.95;100.00;101993.88;4990214;28;19920;-75
2022/07/12 03:58:29;;;;;;;;;;;;;;;12.00;100.00;101996.97;5007016;28;19916;-74
2022/07/12 04:00:54;;;;;;;;;;;;;;;12.11;100.00;101996.84;5014434;28;19917;-75
2022/07/12 04:03:19;;;;;;;;;;;;;;;12.18;100.00;101997.13;5024579;28;19908;-74
2022/07/12 04:05:44;;;;;;;;;;;;;;;12.27;100.00;102011.47;5024763;28;19917;-74
2022/07/12 04:08:10;;;;;;;;;;;;;;;12.35;100.00;102008.94;5000022;28;19921;-77
2022/07/12 04:10:35;;;;;;;;;;;;;;;12.45;100.00;102001.72;5025872;28;20348;-74
2022/07/12 04:13:00;;;;;;;;;;;;;;;12.48;100.00;102003.25;5024333;28;19912;-74
2022/07/12 04:15:26;;;;;;;;;;;;;;;12.54;100.00;101994.66;5024031;28;20008;-76
2022/07/12 04:17:51;;;;;;;;;;;;;;;12.50;100.00;101991.41;5026073;28;19909;-74
2022/07/12 04:20:16;;;;;;;;;;;;;;;12.61;100.00;101999.28;5025104;28;20010;-73
2022/07/12 04:22:42;;;;;;;;;;;;;;;12.65;100.00;101992.63;5013251;28;19917;-74
2022/07/12 04:25:08;;;;;;;;;;;;;;;12.78;100.00;101999.50;5014151;28;19975;-74
2022/07/12 04:27:33;;;;;;;;;;;;;;;12.74;100.00;101992.78;5014637;28;19920;-75
2022/07/12 04:29:58;;;;;;;;;;;;;;;12.71;100.00;101987.69;5006228;28;19921;-75
2022/07/12 04:32:23;;;;;;;;;;;;;;;12.66;100.00;101983.59;5006594;28;19960;-77
2022/07/12 04:34:49;;;;;;;;;;;;;;;12.61;100.00;101977.00;5007724;28;19913;-74
2022/07/12 04:37:14;;;;;;;;;;;;;;;12.60;100.00;101978.84;5006705;28;19909;-74
2022/07/12 04:39:39;;;;;;;;;;;;;;;12.72;100.00;101984.03;5024135;28;20386;-74
2022/07/12 04:42:05;;;;;;;;;;;;;;;12.93;100.00;101979.28;5023290;28;19987;-76
2022/07/12 04:44:30;;;;;;;;;;;;;;;12.90;100.00;101982.28;5025089;28;19921;-74
2022/07/12 04:46:55;;;;;;;;;;;;;;;12.73;100.00;101981.19;5024071;28;19996;-75
2022/07/12 04:49:21;;;;;;;;;;;;;;;12.90;100.00;101982.28;5023824;28;19913;-77
2022/07/12 04:51:46;;;;;;;;;;;;;;;12.98;100.00;101977.00;5025074;28;19970;-74
2022/07/12 04:54:11;;;;;;;;;;;;;;;12.93;100.00;101976.59;5023578;28;19917;-74
2022/07/12 04:56:37;;;;;;;;;;;;;;;12.94;100.00;101974.75;5015848;28;20031;-74
2022/07/12 04:59:02;;;;;;;;;;;;;;;13.16;100.00;101976.19;5024329;28;19917;-76
2022/07/12 05:01:30;;;;;;;;;;;;;;;13.19;100.00;101982.13;5014726;28;19917;-76
2022/07/12 05:03:56;;;;;;;;;;;;;;;13.30;100.00;101989.16;5007094;28;19957;-75
2022/07/12 05:06:22;;;;;;;;;;;;;;;13.47;100.00;101993.69;5006680;28;19999;-75
2022/07/12 05:08:48;;;;;;;;;;;;;;;13.52;100.00;101983.34;4997734;28;20298;-76
2022/07/12 05:11:13;;;;;;;;;;;;;;;13.61;100.00;101986.97;5013701;28;19914;-75
2022/07/12 05:13:39;;;;;;;;;;;;;;;13.58;100.00;101983.72;5013938;28;19913;-75
2022/07/12 05:16:05;;;;;;;;;;;;;;;13.40;100.00;101979.19;4989181;28;20267;-75
2022/07/12 05:18:31;;;;;;;;;;;;;;;13.53;100.00;101984.19;5005142;28;20378;-74
2022/07/12 05:20:56;;;;;;;;;;;;;;;13.80;100.00;101991.34;5004504;28;19963;-75
2022/07/12 05:23:21;;;;;;;;;;;;;;;13.85;100.00;101988.19;5023552;28;19917;-75
2022/07/12 05:25:47;;;;;;;;;;;;;;;13.94;100.00;101993.47;5023671;28;19956;-75
2022/07/12 05:28:14;;;;;;;;;;;;;;;13.83;100.00;101982.97;5023408;28;19917;-76
2022/07/12 05:30:39;;;;;;;;;;;;;;;13.84;100.00;101991.91;5023030;28;19983;-75
2022/07/12 05:33:04;;;;;;;;;;;;;;;13.82;100.00;101997.41;5016429;28;20366;-74
2022/07/12 05:35:29;;;;;;;;;;;;;;;13.90;100.00;101986.72;5005354;28;19909;-74
2022/07/12 05:37:55;;;;;;;;;;;;;;;13.88;100.00;101987.88;5013632;28;19913;-74
2022/07/12 05:40:20;;;;;;;;;;;;;;;14.02;100.00;101989.19;5021424;28;19913;-76
2022/07/12 05:42:46;;;;;;;;;;;;;;;14.07;100.00;101987.75;5023439;28;19974;-75
2022/07/12 05:45:11;;;;;;;;;;;;;;;14.08;100.00;101984.03;5023078;28;20028;-75
2022/07/12 05:47:38;;;;;;;;;;;;;;;14.21;100.00;101983.66;5023524;28;20422;-74
2022/07/12 05:50:04;;;;;;;;;;;;;;;14.42;100.00;101994.03;5008201;28;19913;-75
2022/07/12 05:55:14;;;;;;;;;;;;;;;14.46;100.00;101975.75;5026076;28;19923;-75
2022/07/12 05:57:39;;;;;;;;;;;;;;;14.39;100.00;101967.47;5014453;28;19917;-75
2022/07/12 06:00:05;;;;;;;;;;;;;;;14.58;100.00;101974.50;5022563;28;19917;-74
2022/07/12 06:02:30;;;;;;;;;;;;;;;14.54;100.00;101970.47;5008347;28;19913;-74
2022/07/12 06:04:56;;;;;;;;;;;;;;;14.78;100.00;101970.59;5024443;28;19913;-74
2022/07/12 06:07:21;;;;;;;;;;;;;;;14.91;100.00;101958.53;5009454;28;19920;-77
2022/07/12 06:09:46;;;;;;;;;;;;;;;15.05;100.00;101955.25;5022853;28;20373;-75
2022/07/12 06:12:12;;;;;;;;;;;;;;;15.24;100.00;101959.53;5016405;28;20443;-75
2022/07/12 06:14:37;;;;;;;;;;;;;;;15.50;100.00;101958.56;5026357;28;19917;-77
2022/07/12 06:17:03;;;;;;;;;;;;;;;15.61;100.00;101947.47;5028040;28;19956;-75
2022/07/12 06:19:28;;;;;;;;;;;;;;;15.91;100.00;101940.63;5024706;28;19913;-75
2022/07/12 06:21:54;;;;;;;;;;;;;;;15.90;100.00;101920.09;5022423;28;20381;-75
2022/07/12 06:24:19;;;;;;;;;;;;;;;15.56;100.00;101896.84;5018928;28;20348;-75
2022/07/12 06:26:44;;;;;;;;;;;;;;;15.70;100.00;101921.41;5027114;28;20441;-75
2022/07/12 06:29:09;;;;;;;;;;;;;;;15.90;100.00;101922.78;5020514;28;19917;-77
2022/07/12 06:31:35;;;;;;;;;;;;;;;15.84;100.00;101907.31;5009944;28;19920;-75
2022/07/12 06:34:00;;;;;;;;;;;;;;;16.07;100.00;101928.19;5025996;28;19999;-75
2022/07/12 06:36:26;;;;;;;;;;;;;;;16.18;100.00;101914.34;5025132;28;19920;-75
2022/07/12 06:38:51;;;;;;;;;;;;;;;16.15;100.00;101911.97;5021202;28;20345;-75
2022/07/12 06:41:16;;;;;;;;;;;;;;;16.60;100.00;101924.00;5025424;28;19913;-76
2022/07/12 06:43:42;;;;;;;;;;;;;;;16.64;100.00;101860.63;5026566;28;20280;-77
2022/07/12 06:46:07;;;;;;;;;;;;;;;17.05;100.00;101884.75;5025809;28;20010;-77
2022/07/12 06:48:33;;;;;;;;;;;;;;;17.10;100.00;101868.84;5026160;28;19920;-76
2022/07/12 06:50:58;;;;;;;;;;;;;;;17.33;100.00;101849.16;5009440;28;19991;-76
2022/07/12 06:53:23;;;;;;;;;;;;;;;17.17;100.00;101829.34;5025715;28;19925;-76
2022/07/12 06:55:49;;;;;;;;;;;;;;;16.88;100.00;101813.88;5025825;28;20377;-75
2022/07/12 06:58:14;;;;;;;;;;;;;;;16.91;100.00;101847.72;5025690;28;20000;-76
2022/07/12 07:00:39;;;;;;;;;;;;;;;17.03;100.00;101859.78;5026144;28;19920;-75
2022/07/12 07:03:08;;;;;;;;;;;;;;;16.85;100.00;101841.19;5025416;28;20018;-75
2022/07/12 07:05:33;;;;;;;;;;;;;;;17.19;100.00;101886.69;4983083;28;19936;-75
2022/07/12 07:07:59;;;;;;;;;;;;;;;16.87;100.00;101845.38;5023469;28;19928;-75
2022/07/12 07:10:24;;;;;;;;;;;;;;;17.16;100.00;101886.19;5025992;28;19909;-75
2022/07/12 07:12:49;;;;;;;;;;;;;;;16.97;100.00;101877.50;5025896;28;19920;-75
2022/07/12 07:15:16;;;;;;;;;;;;;;;16.97;100.00;101893.69;5025823;28;19916;-76
2022/07/12 07:17:42;;;;;;;;;;;;;;;16.82;100.00;101899.00;5020449;28;20369;-75
2022/07/12 07:20:08;;;;;;;;;;;;;;;16.66;100.00;101883.69;5025066;28;20046;-77
2022/07/12 07:22:33;;;;;;;;;;;;;;;16.84;100.00;101907.78;5025471;28;19920;-75
2022/07/12 07:24:58;;;;;;;;;;;;;;;17.06;100.00;101919.63;5026517;28;20381;-77
2022/07/12 07:27:24;;;;;;;;;;;;;;;17.16;100.00;101905.06;5024592;28;20161;-75
2022/07/12 07:32:33;;;;;;;;;;;;;;;17.46;100.00;101914.16;5026625;28;19913;-75
2022/07/12 07:34:59;;;;;;;;;;;;;;;17.40;100.00;101871.69;5025466;28;19966;-75
2022/07/12 07:37:24;;;;;;;;;;;;;;;17.41;100.00;101867.97;5024385;28;20417;-75
2022/07/12 07:39:49;;;;;;;;;;;;;;;17.61;100.00;101879.97;5026278;28;19912;-76
2022/07/12 07:42:15;;;;;;;;;;;;;;;17.59;100.00;101892.81;5018474;28;19939;-75
2022/07/12 07:44:40;;;;;;;;;;;;;;;17.43;100.00;101892.94;5026593;28;19913;-75
2022/07/12 07:47:06;;;;;;;;;;;;;;;17.24;100.00;101915.81;5024732;28;20278;-75
2022/07/12 07:49:31;;;;;;;;;;;;;;;17.09;100.00;101940.00;5026191;28;19986;-75
2022/07/12 07:51:56;;;;;;;;;;;;;;;17.78;100.00;101948.19;5025158;28;20518;-75
2022/07/12 07:54:21;;;;;;;;;;;;;;;17.66;100.00;101931.56;5025848;28;20322;-77
2022/07/12 07:56:47;;;;;;;;;;;;;;;17.60;100.00;101882.81;5025129;28;19924;-75
2022/07/12 07:59:12;;;;;;;;;;;;;;;17.43;100.00;101942.34;5017227;28;19913;-77
2022/07/12 08:01:52;;;;;;;;;;;;;;;17.47;100.00;101954.47;5024679;28;19920;-77
2022/07/12 08:04:18;;;;;;;;;;;;;;;17.66;100.00;101952.31;5024322;28;19924;-77
2022/07/12 08:06:43;;;;;;;;;;;;;;;17.65;100.00;101962.28;5026031;28;19927;-75
2022/07/12 08:09:09;;;;;;;;;;;;;;;17.64;100.00;101944.41;5025489;28;20286;-75
2022/07/12 08:11:35;;;;;;;;;;;;;;;17.13;100.00;101962.94;5024347;28;19916;-75
2022/07/12 08:14:00;;;;;;;;;;;;;;;17.23;100.00;101974.38;5024153;28;19913;-75
2022/07/12 08:16:26;;;;;;;;;;;;;;;17.43;100.00;101979.31;5007499;28;19920;-75
2022/07/12 08:18:51;;;;;;;;;;;;;;;17.57;100.00;102008.25;5025614;28;19917;-75
2022/07/12 08:21:17;;;;;;;;;;;;;;;17.24;100.00;101986.81;5024761;28;19917;-75
2022/07/12 08:23:42;;;;;;;;;;;;;;;17.26;100.00;102010.94;5024721;28;19917;-78
2022/07/12 08:26:07;;;;;;;;;;;;;;;17.67;100.00;102029.63;5023863;28;20349;-77
2022/07/12 08:28:33;;;;;;;;;;;;;;;17.49;100.00;101986.72;5024565;28;20007;-75
2022/07/12 08:30:58;;;;;;;;;;;;;;;17.53;100.00;101990.72;5024174;28;19971;-77
2022/07/12 08:33:23;;;;;;;;;;;;;;;17.77;100.00;102008.63;5024985;28;19922;-75
2022/07/12 08:35:49;;;;;;;;;;;;;;;17.64;100.00;101946.25;5023969;28;19909;-75
2022/07/12 08:38:15;;;;;;;;;;;;;;;18.11;100.00;102008.22;5023823;28;19917;-75
2022/07/12 08:40:41;;;;;;;;;;;;;;;18.22;100.00;101933.97;5023937;28;20440;-78
2022/07/12 08:43:06;;;;;;;;;;;;;;;18.63;100.00;101932.69;5023724;28;20208;-75
2022/07/12 08:45:31;;;;;;;;;;;;;;;18.56;100.00;101894.72;4988634;28;20106;-76
2022/07/12 08:47:57;;;;;;;;;;;;;;;18.88;100.00;101890.81;5004831;28;20371;-77
2022/07/12 08:50:26;;;;;;;;;;;;;;;18.82;100.00;101821.22;5007592;28;19932;-77
2022/07/12 08:52:53;;;;;;;;;;;;;;;19.01;100.00;101868.50;5024013;28;19917;-76
2022/07/12 08:55:31;;;;;;;;;;;;;;;19.17;100.00;101810.56;5017136;28;19909;-75
2022/07/12 08:57:58;;;;;;;;;;;;;;;19.00;100.00;101841.63;5024976;28;20023;-77
2022/07/12 09:00:24;;;;;;;;;;;;;;;18.93;100.00;101866.72;5023467;28;20114;-76
2022/07/12 09:02:53;;;;;;;;;;;;;;;19.48;100.00;101925.81;5024911;28;20011;-77
2022/07/12 09:05:26;;;;;;;;;;;;;;;19.66;100.00;101853.06;5024606;28;19909;-76
2022/07/12 09:07:51;;;;;;;;;;;;;;;20.70;100.00;101846.88;5023992;28;20460;-77
2022/07/12 09:10:17;;;;;;;;;;;;;;;20.84;100.00;101703.94;5023152;28;19971;-76
2022/07/12 09:12:43;;;;;;;;;;;;;;;19.40;100.00;101711.00;5023886;28;20270;-75
2022/07/12 09:15:16;;;;;;;;;;;;;;;20.37;100.00;101862.94;5023394;28;20362;-76
2022/07/12 09:17:46;;;;;;;;;;;;;;;20.35;100.00;101798.09;5025019;28;19924;-77
2022/07/12 09:20:11;;;;;;;;;;;;;;;20.30;100.00;101838.53;5015933;28;19921;-77
2022/07/12 09:22:37;;;;;;;;;;;;;;;19.82;100.00;101824.88;5024990;28;19974;-76
2022/07/12 09:25:09;;;;;;;;;;;;;;;19.39;100.00;101820.34;5026006;28;19920;-75
2022/07/12 09:27:34;;;;;;;;;;;;;;;19.50;100.00;101961.66;5027477;28;19959;-75
2022/07/12 09:30:00;;;;;;;;;;;;;;;19.40;100.00;101934.91;5027648;28;19913;-75
2022/07/12 09:37:53;;;;;;;;;;;;;;;20.05;100.00;101862.56;5028735;28;20119;-76
2022/07/12 09:40:20;;;;;;;;;;;;;;;20.22;100.00;101874.75;5026860;28;20035;-76
2022/07/12 09:42:46;;;;;;;;;;;;;;;20.18;100.00;101881.66;5027652;28;19921;-75
2022/07/12 09:45:11;;;;;;;;;;;;;;;20.13;100.00;101865.09;5027003;28;20354;-77
2022/07/12 09:47:37;;;;;;;;;;;;;;;20.31;100.00;101864.59;5027369;28;20020;-77
2022/07/12 09:50:07;;;;;;;;;;;;;;;20.08;100.00;101802.53;5028672;28;19916;-75
2022/07/12 09:52:36;;;;;;;;;;;;;;;19.51;100.00;101860.44;5017165;28;20409;-76
2022/07/12 09:55:02;;;;;;;;;;;;;;;19.36;100.00;101910.09;5008523;28;19917;-77
2022/07/12 09:57:27;;;;;;;;;;;;;;;20.01;100.00;101981.38;5011206;28;19971;-76
2022/07/12 09:59:53;;;;;;;;;;;;;;;20.10;100.00;101917.03;5010732;28;19913;-76
2022/07/12 10:02:20;;;;;;;;;;;;;;;20.50;100.00;101909.16;5018801;28;19925;-76
2022/07/12 10:04:46;;;;;;;;;;;;;;;20.46;100.00;101886.16;5027657;28;20357;-76
2022/07/12 10:07:15;;;;;;;;;;;;;;;20.39;100.00;101869.88;5026506;28;19928;-76
2022/07/12 10:09:48;;;;;;;;;;;;;;;20.41;100.00;101858.81;5027194;28;20253;-78
2022/07/12 10:12:15;;;;;;;;;;;;;;;20.47;100.00;101824.63;5026729;28;19913;-76
2022/07/12 10:14:41;;;;;;;;;;;;;;;20.31;100.00;101839.38;5026880;28;19923;-77
2022/07/12 10:17:09;;;;;;;;;;;;;;;20.69;100.00;101874.22;5026073;28;19917;-77
2022/07/12 10:19:35;;;;;;;;;;;;;;;20.75;100.00;101811.00;5023400;28;19909;-75
2022/07/12 10:22:02;;;;;;;;;;;;;;;21.69;100.00;101900.59;5023637;28;19925;-75
2022/07/12 10:24:30;;;;;;;;;;;;;;;23.11;100.00;101702.09;5024563;28;19936;-76
2022/07/12 10:26:56;;;;;;;;;;;;;;;23.30;100.00;101598.63;5023070;28;20407;-76
2022/07/12 10:29:21;;;;;;;;;;;;;;;22.97;100.00;101687.72;5027480;28;19917;-75
2022/07/12 10:31:47;;;;;;;;;;;;;;;23.05;100.00;101493.28;5021212;28;20007;-76
2022/07/12 10:34:12;;;;;;;;;;;;;;;22.51;100.00;101617.31;5024916;28;19913;-77
2022/07/12 10:36:56;;;;;;;;;;;;;;;24.16;100.00;101615.78;5025955;28;19920;-76
2022/07/12 10:39:25;;;;;;;;;;;;;;;24.24;100.00;101451.78;5025715;28;19924;-76
2022/07/12 10:42:17;;;;;;;;;;;;;;;24.69;100.00;101376.66;5026065;28;19917;-76
2022/07/12 10:44:46;;;;;;;;;;;;;;;24.76;99.39;101355.50;5025197;28;20040;-75
2022/07/12 10:47:15;;;;;;;;;;;;;;;24.18;100.00;101442.63;5026697;28;19924;-76
2022/07/12 10:49:48;;;;;;;;;;;;;;;24.74;100.00;101412.25;5027645;28;19921;-75
2022/07/12 10:52:14;;;;;;;;;;;;;;;25.10;100.00;101498.50;5025495;28;19917;-77
2022/07/12 10:54:39;;;;;;;;;;;;;;;25.27;98.01;101431.09;5026010;28;20306;-75
2022/07/12 10:57:05;;;;;;;;;;;;;;;24.69;98.74;101338.44;5025894;28;20380;-76
2022/07/12 10:59:33;;;;;;;;;;;;;;;25.52;98.73;101487.34;4990636;28;19917;-77
2022/07/12 11:01:59;;;;;;;;;;;;;;;25.66;85.89;101245.34;5022713;28;19933;-76
2022/07/12 11:04:25;;;;;;;;;;;;;;;24.73;91.25;101194.91;5018103;28;19909;-77
2022/07/12 11:06:55;;;;;;;;;;;;;;;25.47;99.15;101504.47;5026031;28;19983;-78
2022/07/12 11:09:21;;;;;;;;;;;;;;;25.21;94.48;101330.97;5025524;28;19912;-77
2022/07/12 11:11:50;;;;;;;;;;;;;;;25.54;95.04;101432.41;5026425;28;20406;-78
2022/07/12 11:14:23;;;;;;;;;;;;;;;25.42;99.33;101501.63;5025613;28;19913;-76
2022/07/12 11:16:51;;;;;;;;;;;;;;;26.21;88.23;101434.38;5025773;28;19959;-77
2022/07/12 11:19:20;;;;;;;;;;;;;;;26.06;87.28;101370.13;5025481;28;20440;-77
2022/07/12 11:21:46;;;;;;;;;;;;;;;24.99;89.45;101183.34;5025798;28;19946;-77
2022/07/12 11:24:18;;;;;;;;;;;;;;;24.93;96.00;101347.34;5025191;28;19936;-78
2022/07/12 11:26:44;;;;;;;;;;;;;;;25.36;90.82;101337.81;5025676;28;19916;-76
2022/07/12 11:29:09;;;;;;;;;;;;;;;24.01;99.29;101265.22;5008526;28;19916;-77
2022/07/12 11:31:35;;;;;;;;;;;;;;;24.32;100.00;101489.59;5026728;28;19913;-78
2022/07/12 11:34:00;;;;;;;;;;;;;;;25.28;99.34;101506.53;5026928;28;20414;-75
2022/07/12 11:36:27;;;;;;;;;;;;;;;25.92;92.50;101469.19;5016919;28;19921;-75
2022/07/12 11:38:52;;;;;;;;;;;;;;;25.39;91.27;101356.44;5026406;28;19913;-75
2022/07/12 11:41:19;;;;;;;;;;;;;;;25.67;96.09;101486.78;5025351;28;19917;-76
2022/07/12 11:43:44;;;;;;;;;;;;;;;24.90;97.52;101388.81;5024973;28;19913;-75
2022/07/12 11:46:10;;;;;;;;;;;;;;;25.61;94.39;101474.09;5024214;28;19919;-75
2022/07/12 11:48:36;;;;;;;;;;;;;;;25.99;88.71;101391.38;5024388;28;19960;-75
2022/07/12 11:51:06;;;;;;;;;;;;;;;26.24;85.91;101392.81;5024365;28;19928;-75
2022/07/12 11:53:32;;;;;;;;;;;;;;;26.77;81.38;101385.06;5022413;28;19922;-75
2022/07/12 11:55:58;;;;;;;;;;;;;;;25.66;85.76;101274.56;5022234;28;20013;-75
2022/07/12 11:58:24;;;;;;;;;;;;;;;26.10;87.73;101426.00;5024700;28;19944;-76
2022/07/12 12:00:51;;;;;;;;;;;;;;;25.07;93.86;101348.72;5024338;28;19909;-75
2022/07/12 12:03:17;;;;;;;;;;;;;;;25.23;88.47;101287.84;5024123;28;20335;-78
2022/07/12 12:05:42;;;;;;;;;;;;;;;26.22;88.63;101498.97;5024856;28;19909;-76
2022/07/12 12:08:10;;;;;;;;;;;;;;;25.77;84.83;101305.66;5024368;28;20018;-78
2022/07/12 12:10:35;;;;;;;;;;;;;;;26.87;82.22;101470.09;5024815;28;20350;-77
2022/07/12 12:13:01;;;;;;;;;;;;;;;27.05;78.78;101397.72;5018248;28;20023;-77
2022/07/12 12:15:33;;;;;;;;;;;;;;;25.86;91.09;101452.69;5025642;28;19920;-78
2022/07/12 12:17:59;;;;;;;;;;;;;;;26.86;76.10;101296.69;5017922;28;20012;-77
2022/07/12 12:20:36;;;;;;;;;;;;;;;27.19;75.07;101359.78;5008869;28;19976;-76
2022/07/12 12:23:05;;;;;;;;;;;;;;;25.69;86.05;101343.28;5024456;28;20411;-78
2022/07/12 12:25:31;;;;;;;;;;;;;;;26.05;81.14;101294.59;5006381;28;19913;-77
2022/07/12 12:27:57;;;;;;;;;;;;;;;26.40;81.33;101375.53;5021689;28;20116;-76
2022/07/12 12:30:23;;;;;;;;;;;;;;;26.45;81.37;101375.59;5023500;28;20472;-76
2022/07/12 12:32:48;;;;;;;;;;;;;;;26.52;76.96;101279.59;5024062;28;19948;-76
2022/07/12 12:35:15;;;;;;;;;;;;;;;26.67;73.96;101237.91;5025060;28;19909;-77